createdAt,value
2023-03-21T00:01:53.909Z,7.65
2023-03-21T00:04:23.767Z,7.59
2023-03-21T00:06:52.047Z,7.63
2023-03-21T00:09:20.244Z,7.63
2023-03-21T00:11:48.634Z,7.63
2023-03-21T00:14:19.091Z,7.55
2023-03-21T00:16:52.192Z,7.57
2023-03-21T00:19:21.934Z,7.57
2023-03-21T00:22:06.601Z,7.57
2023-03-21T00:24:36.218Z,7.59
2023-03-21T00:29:53.137Z,7.56
2023-03-21T00:32:21.974Z,7.58
2023-03-21T00:35:40.769Z,7.63
2023-03-21T00:37:38.986Z,7.56
2023-03-21T00:40:16.297Z,7.56
2023-03-21T00:42:52.116Z,7.53
2023-03-21T00:45:22.457Z,7.60
2023-03-21T00:47:50.791Z,7.51
2023-03-21T00:50:18.888Z,7.46
2023-03-21T00:52:46.895Z,7.45
2023-03-21T00:55:17.150Z,7.48
2023-03-21T00:57:50.099Z,7.46
2023-03-21T01:00:25.434Z,7.43
2023-03-21T01:03:17.577Z,7.39
2023-03-21T01:06:09.934Z,7.35
2023-03-21T01:08:51.860Z,7.35
2023-03-21T01:11:23.191Z,7.34
2023-03-21T01:13:59.657Z,7.20
2023-03-21T01:16:32.659Z,7.28
2023-03-21T01:19:02.150Z,7.24
2023-03-21T01:21:33.498Z,7.24
2023-03-21T01:24:02.440Z,7.21
2023-03-21T01:26:30.151Z,7.25
2023-03-21T01:28:58.478Z,7.24
2023-03-21T01:31:26.394Z,7.24
2023-03-21T01:33:54.323Z,7.21
2023-03-21T01:36:25.378Z,7.22
2023-03-21T01:38:57.841Z,7.16
2023-03-21T01:41:47.489Z,7.11
2023-03-21T01:44:25.052Z,7.15
2023-03-21T01:47:10.552Z,7.17
2023-03-21T01:50:02.849Z,7.16
2023-03-21T01:52:42.170Z,7.11
2023-03-21T01:55:28.791Z,7.09
2023-03-21T01:58:18.425Z,7.13
2023-03-21T02:01:10.463Z,7.13
2023-03-21T02:03:53.094Z,7.07
2023-03-21T02:06:53.956Z,6.99
2023-03-21T02:09:40.441Z,7.07
2023-03-21T02:12:16.567Z,7.11
2023-03-21T02:14:48.675Z,7.05
2023-03-21T02:18:05.627Z,7.14
2023-03-21T02:21:03.102Z,7.16
2023-03-21T02:23:51.956Z,7.09
2023-03-21T02:26:40.899Z,7.05
2023-03-21T02:29:31.022Z,7.07
2023-03-21T02:32:36.656Z,7.05
2023-03-21T02:35:15.375Z,7.02
2023-03-21T02:37:52.023Z,7.03
2023-03-21T02:40:28.817Z,7.07
2023-03-21T02:43:09.338Z,6.99
2023-03-21T02:45:57.517Z,7.03
2023-03-21T02:48:44.400Z,6.98
2023-03-21T02:51:21.437Z,6.95
2023-03-21T02:54:23.710Z,6.95
2023-03-21T02:56:46.040Z,6.91
2023-03-21T02:59:16.957Z,6.96
2023-03-21T03:01:46.482Z,6.92
2023-03-21T03:04:22.952Z,6.88
2023-03-21T03:07:18.521Z,6.88
2023-03-21T03:10:17.342Z,6.88
2023-03-21T03:12:52.399Z,6.86
2023-03-21T03:15:24.548Z,6.86
2023-03-21T03:18:20.010Z,6.80
2023-03-21T03:21:11.208Z,6.85
2023-03-21T03:23:58.655Z,6.87
2023-03-21T03:26:34.410Z,6.92
2023-03-21T03:29:13.977Z,6.81
2023-03-21T03:31:49.457Z,6.89
2023-03-21T03:34:21.172Z,6.90
2023-03-21T03:36:56.577Z,6.88
2023-03-21T03:39:36.260Z,6.85
2023-03-21T03:42:25.499Z,6.83
2023-03-21T03:45:01.177Z,6.81
2023-03-21T03:47:39.884Z,6.80
2023-03-21T03:50:13.974Z,6.81
2023-03-21T03:52:55.840Z,6.83
2023-03-21T03:55:28.334Z,6.76
2023-03-21T03:58:06.429Z,6.79
2023-03-21T04:00:39.329Z,6.73
2023-03-21T04:03:07.595Z,6.74
2023-03-21T04:05:35.486Z,6.78
2023-03-21T04:08:03.907Z,6.73
2023-03-21T04:10:39.126Z,6.76
2023-03-21T04:13:06.998Z,6.75
2023-03-21T04:15:54.053Z,6.77
2023-03-21T04:18:23.627Z,6.71
2023-03-21T04:20:51.703Z,6.82
2023-03-21T04:23:20.390Z,6.85
2023-03-21T04:25:56.602Z,6.77
2023-03-21T04:28:38.732Z,6.82
2023-03-21T04:31:31.595Z,6.77
2023-03-21T04:34:12.991Z,6.76
2023-03-21T04:36:51.227Z,6.76
2023-03-21T04:39:19.258Z,6.72
2023-03-21T04:41:50.732Z,6.68
2023-03-21T04:44:18.648Z,6.71
2023-03-21T04:46:48.229Z,6.71
2023-03-21T04:49:16.126Z,6.72
2023-03-21T04:51:45.631Z,6.72
2023-03-21T04:54:18.184Z,6.75
2023-03-21T04:56:46.338Z,6.76
2023-03-21T04:59:16.984Z,6.76
2023-03-21T05:01:46.102Z,6.74
2023-03-21T05:04:15.027Z,6.78
2023-03-21T05:06:44.561Z,6.81
2023-03-21T05:09:13.440Z,6.78
2023-03-21T05:11:41.982Z,6.76
2023-03-21T05:14:16.188Z,6.78
2023-03-21T05:16:49.090Z,6.78
2023-03-21T05:19:19.420Z,6.77
2023-03-21T05:21:50.162Z,6.79
2023-03-21T05:24:22.773Z,6.81
2023-03-21T05:26:52.761Z,6.83
2023-03-21T05:29:26.033Z,6.84
2023-03-21T05:32:00.937Z,6.79
2023-03-21T05:34:30.236Z,6.84
2023-03-21T05:36:59.608Z,6.84
2023-03-21T05:39:37.121Z,6.79
2023-03-21T05:42:12.226Z,6.74
2023-03-21T05:44:41.121Z,6.80
2023-03-21T05:47:13.497Z,6.77
2023-03-21T05:49:45.719Z,6.82
2023-03-21T05:52:14.640Z,6.84
2023-03-21T05:54:42.585Z,6.85
2023-03-21T05:57:11.292Z,6.87
2023-03-21T05:59:51.596Z,6.87
2023-03-21T06:02:21.954Z,6.91
2023-03-21T06:04:51.563Z,6.81
2023-03-21T06:07:22.324Z,6.78
2023-03-21T06:09:51.649Z,6.78
2023-03-21T06:12:20.462Z,6.78
2023-03-21T06:15:01.761Z,6.71
2023-03-21T06:17:48.812Z,6.75
2023-03-21T06:20:17.962Z,6.80
2023-03-21T06:22:51.567Z,6.79
2023-03-21T06:25:20.356Z,6.80
2023-03-21T06:27:49.053Z,6.78
2023-03-21T06:30:18.993Z,6.76
2023-03-21T06:33:01.069Z,6.78
2023-03-21T06:35:29.013Z,6.87
2023-03-21T06:37:59.442Z,6.81
2023-03-21T06:40:32.158Z,6.81
2023-03-21T06:43:00.260Z,6.80
2023-03-21T06:45:28.464Z,6.83
2023-03-21T06:47:58.148Z,6.85
2023-03-21T06:50:35.921Z,6.83
2023-03-21T06:53:04.880Z,6.88
2023-03-21T06:55:37.391Z,6.90
2023-03-21T06:58:06.303Z,6.95
2023-03-21T07:00:34.317Z,6.90
2023-03-21T07:03:03.215Z,6.85
2023-03-21T07:05:37.429Z,6.92
2023-03-21T07:08:10.606Z,6.97
2023-03-21T07:10:45.355Z,6.95
2023-03-21T07:13:15.071Z,7.07
2023-03-21T07:15:46.962Z,7.12
2023-03-21T07:18:15.442Z,7.14
2023-03-21T07:20:48.925Z,7.21
2023-03-21T07:23:21.979Z,7.26
2023-03-21T07:25:51.216Z,7.28
2023-03-21T07:28:19.845Z,7.34
2023-03-21T07:30:55.803Z,7.46
2023-03-21T07:33:25.401Z,7.47
2023-03-21T07:35:58.067Z,7.56
2023-03-21T07:38:27.009Z,7.62
2023-03-21T07:40:54.525Z,7.65
2023-03-21T07:43:23.852Z,7.62
2023-03-21T07:45:57.489Z,7.67
2023-03-21T07:48:27.968Z,7.72
2023-03-21T07:50:55.913Z,7.81
2023-03-21T07:53:23.817Z,7.80
2023-03-21T07:55:54.169Z,7.86
2023-03-21T07:58:22.077Z,7.82
2023-03-21T08:00:49.902Z,7.71
2023-03-21T08:03:18.359Z,7.71
2023-03-21T08:05:47.927Z,7.58
2023-03-21T08:08:17.205Z,7.65
2023-03-21T08:10:46.311Z,7.72
2023-03-21T08:13:15.068Z,7.82
2023-03-21T08:15:43.699Z,7.84
2023-03-21T08:18:12.872Z,7.86
2023-03-21T08:20:42.496Z,7.87
2023-03-21T08:23:10.900Z,8.00
2023-03-21T08:25:40.499Z,8.22
2023-03-21T08:28:08.935Z,8.31
2023-03-21T08:30:38.263Z,8.37
2023-03-21T08:33:08.415Z,8.44
2023-03-21T08:35:39.619Z,8.44
2023-03-21T08:38:09.661Z,8.53
2023-03-21T08:40:37.856Z,8.36
2023-03-21T08:43:06.288Z,8.35
2023-03-21T08:45:34.325Z,8.34
2023-03-21T08:48:02.725Z,8.43
2023-03-21T08:50:32.098Z,8.37
2023-03-21T08:53:00.741Z,8.40
2023-03-21T08:55:28.667Z,8.45
2023-03-21T08:57:57.427Z,8.39
2023-03-21T09:00:26.085Z,8.35
2023-03-21T09:02:54.805Z,8.34
2023-03-21T09:05:23.127Z,8.36
2023-03-21T09:07:53.070Z,8.32
2023-03-21T09:10:23.321Z,8.38
2023-03-21T09:12:53.316Z,8.41
2023-03-21T09:15:26.816Z,8.41
2023-03-21T09:17:58.645Z,8.43
2023-03-21T09:20:31.565Z,8.37
2023-03-21T09:23:00.001Z,8.40
2023-03-21T09:25:31.841Z,8.48
2023-03-21T09:28:01.226Z,8.47
2023-03-21T09:30:31.707Z,8.51
2023-03-21T09:33:01.564Z,8.36
2023-03-21T09:35:30.131Z,8.40
2023-03-21T09:37:59.646Z,8.16
2023-03-21T09:40:46.148Z,8.04
2023-03-21T09:43:20.938Z,8.02
2023-03-21T09:46:00.189Z,8.04
2023-03-21T09:48:47.004Z,8.00
2023-03-21T09:51:22.613Z,8.11
2023-03-21T09:53:52.661Z,8.08
2023-03-21T09:56:21.490Z,8.13
2023-03-21T09:58:54.950Z,8.21
2023-03-21T10:01:33.379Z,8.24
2023-03-21T10:04:07.645Z,8.28
2023-03-21T10:06:39.733Z,8.38
2023-03-21T10:09:15.347Z,8.38
2023-03-21T10:11:48.874Z,8.42
2023-03-21T10:14:21.059Z,8.44
2023-03-21T10:17:05.094Z,8.40
2023-03-21T10:19:33.340Z,8.38
2023-03-21T10:22:03.109Z,8.46
2023-03-21T10:24:34.661Z,8.55
2023-03-21T10:27:04.034Z,8.62
2023-03-21T10:29:43.519Z,8.52
2023-03-21T10:32:14.493Z,8.57
2023-03-21T10:34:44.574Z,8.59
2023-03-21T10:37:14.498Z,8.66
2023-03-21T10:39:47.020Z,8.75
2023-03-21T10:42:26.407Z,8.74
2023-03-21T10:44:57.875Z,8.70
2023-03-21T10:47:32.133Z,8.81
2023-03-21T10:50:14.035Z,8.91
2023-03-21T10:53:00.629Z,8.96
2023-03-21T10:55:34.331Z,9.00
2023-03-21T10:58:08.746Z,9.07
2023-03-21T11:00:43.678Z,9.14
2023-03-21T11:03:37.024Z,9.34
2023-03-21T11:06:16.469Z,9.45
2023-03-21T11:09:15.209Z,9.61
2023-03-21T11:12:13.796Z,9.65
2023-03-21T11:14:47.522Z,9.79
2023-03-21T11:17:18.447Z,9.79
2023-03-21T11:19:50.715Z,9.72
2023-03-21T11:22:23.595Z,9.69
2023-03-21T11:24:55.075Z,9.74
2023-03-21T11:27:25.497Z,9.71
2023-03-21T11:29:53.232Z,9.76
2023-03-21T11:32:34.498Z,9.67
2023-03-21T11:35:02.714Z,9.70
2023-03-21T11:37:51.447Z,9.58
2023-03-21T11:40:28.121Z,9.57
2023-03-21T11:43:00.850Z,9.40
2023-03-21T11:45:34.484Z,9.30
2023-03-21T11:48:09.028Z,9.19
2023-03-21T11:50:40.643Z,9.11
2023-03-21T11:53:36.972Z,9.08
2023-03-21T11:56:11.453Z,9.06
2023-03-21T11:58:59.211Z,9.03
2023-03-21T12:01:27.706Z,9.00
2023-03-21T12:04:41.722Z,8.98
2023-03-21T12:07:34.621Z,9.03
2023-03-21T12:10:35.082Z,9.00
2023-03-21T12:13:05.850Z,9.13
2023-03-21T12:15:40.717Z,9.16
2023-03-21T12:18:14.639Z,9.27
2023-03-21T12:21:26.015Z,9.45
2023-03-21T12:24:03.124Z,9.58
2023-03-21T12:26:50.495Z,9.63
2023-03-21T12:29:41.140Z,9.74
2023-03-21T12:32:44.140Z,9.90
2023-03-21T12:35:39.418Z,10.08
2023-03-21T12:38:17.325Z,10.02
2023-03-21T12:41:03.843Z,9.89
2023-03-21T12:43:43.160Z,9.77
2023-03-21T12:46:42.383Z,9.68
2023-03-21T12:49:17.997Z,9.29
2023-03-21T12:51:49.191Z,9.39
2023-03-21T12:54:31.975Z,9.22
2023-03-21T12:57:06.168Z,9.15
2023-03-21T12:59:38.882Z,9.03
2023-03-21T13:02:27.624Z,8.98
2023-03-21T13:05:17.673Z,9.00
2023-03-21T13:07:55.322Z,9.13
2023-03-21T13:10:24.792Z,9.12
2023-03-21T13:13:10.188Z,9.21
2023-03-21T13:15:48.658Z,9.30
2023-03-21T13:18:17.031Z,9.40
2023-03-21T13:21:01.180Z,9.36
2023-03-21T13:23:37.813Z,9.38
2023-03-21T13:26:11.720Z,9.47
2023-03-21T13:28:41.420Z,9.60
2023-03-21T13:31:16.329Z,9.82
2023-03-21T13:33:48.470Z,9.83
2023-03-21T13:36:29.171Z,9.83
2023-03-21T13:39:06.597Z,9.90
2023-03-21T13:41:39.326Z,9.96
2023-03-21T13:44:19.595Z,9.91
2023-03-21T13:47:20.885Z,9.86
2023-03-21T13:50:24.804Z,9.90
2023-03-21T13:53:11.526Z,9.91
2023-03-21T13:55:46.063Z,9.87
2023-03-21T13:58:34.640Z,9.90
2023-03-21T14:01:28.077Z,10.01
2023-03-21T14:04:01.384Z,10.15
2023-03-21T14:06:36.325Z,10.01
2023-03-21T14:09:05.444Z,9.93
2023-03-21T14:11:34.866Z,9.87
2023-03-21T14:14:11.026Z,9.79
2023-03-21T14:16:39.393Z,9.81
2023-03-21T14:19:07.983Z,9.87
2023-03-21T14:21:36.745Z,9.75
2023-03-21T14:24:23.121Z,9.82
2023-03-21T14:26:54.095Z,9.72
2023-03-21T14:29:34.089Z,9.89
2023-03-21T14:32:04.187Z,9.94
2023-03-21T14:34:35.626Z,10.03
2023-03-21T14:37:08.105Z,10.22
2023-03-21T14:39:36.399Z,10.20
2023-03-21T14:42:12.576Z,10.22
2023-03-21T14:44:58.349Z,10.19
2023-03-21T14:47:29.551Z,10.15
2023-03-21T14:49:58.412Z,10.05
2023-03-21T14:52:33.251Z,10.05
2023-03-21T14:55:02.406Z,10.01
2023-03-21T14:57:32.337Z,9.91
2023-03-21T15:00:02.637Z,9.71
2023-03-21T15:02:37.287Z,9.65
2023-03-21T15:05:31.877Z,9.56
2023-03-21T15:08:19.051Z,9.55
2023-03-21T15:11:08.279Z,9.56
2023-03-21T15:13:45.804Z,9.51
2023-03-21T15:16:15.580Z,9.50
2023-03-21T15:18:45.103Z,9.51
2023-03-21T15:21:17.693Z,9.56
2023-03-21T15:23:53.465Z,9.55
2023-03-21T15:26:25.608Z,9.50
2023-03-21T15:28:59.376Z,9.63
2023-03-21T15:31:36.071Z,9.58
2023-03-21T15:34:04.998Z,9.63
2023-03-21T15:36:44.338Z,9.63
2023-03-21T15:39:18.697Z,9.65
2023-03-21T15:42:08.071Z,9.67
2023-03-21T15:44:36.847Z,9.68
2023-03-21T15:47:05.542Z,9.72
2023-03-21T15:49:35.152Z,9.74
2023-03-21T15:52:14.858Z,9.73
2023-03-21T15:54:50.421Z,9.78
2023-03-21T15:57:29.959Z,9.82
2023-03-21T16:00:13.604Z,9.84
2023-03-21T16:02:42.714Z,9.77
2023-03-21T16:05:33.318Z,9.75
2023-03-21T16:08:32.235Z,9.74
2023-03-21T16:11:12.561Z,9.63
2023-03-21T16:13:41.102Z,9.61
2023-03-21T16:16:27.449Z,9.61
2023-03-21T16:18:57.120Z,9.52
2023-03-21T16:21:28.718Z,9.51
2023-03-21T16:23:58.415Z,9.50
2023-03-21T16:26:37.115Z,9.43
2023-03-21T16:29:06.239Z,9.39
2023-03-21T16:31:37.408Z,9.24
2023-03-21T16:34:05.557Z,9.07
2023-03-21T16:36:39.051Z,9.14
2023-03-21T16:39:21.895Z,9.08
2023-03-21T16:41:52.067Z,9.00
2023-03-21T16:44:20.797Z,8.96
2023-03-21T16:46:50.336Z,8.86
2023-03-21T16:49:23.918Z,8.78
2023-03-21T16:51:54.091Z,8.69
2023-03-21T16:54:23.115Z,8.63
2023-03-21T16:56:55.855Z,8.55
2023-03-21T16:59:24.260Z,8.46
2023-03-21T17:01:52.582Z,8.34
2023-03-21T17:04:20.583Z,8.18
2023-03-21T17:06:51.367Z,8.12
2023-03-21T17:09:22.165Z,7.97
2023-03-21T17:11:50.624Z,7.82
2023-03-21T17:14:19.185Z,7.72
2023-03-21T17:16:47.724Z,7.54
2023-03-21T17:19:24.168Z,7.28
2023-03-21T17:21:52.713Z,7.13
2023-03-21T17:24:20.568Z,7.05
2023-03-21T17:26:48.664Z,6.96
2023-03-21T17:29:16.802Z,6.72
2023-03-21T17:31:47.616Z,6.61
2023-03-21T17:34:16.122Z,6.53
2023-03-21T17:36:46.689Z,6.42
2023-03-21T17:39:21.451Z,6.30
2023-03-21T17:41:51.091Z,6.15
2023-03-21T17:44:20.479Z,5.98
2023-03-21T17:46:52.386Z,5.89
2023-03-21T17:49:21.462Z,5.73
2023-03-21T17:51:50.792Z,5.70
2023-03-21T17:54:19.028Z,5.55
2023-03-21T17:56:47.478Z,5.46
2023-03-21T17:59:15.669Z,5.41
2023-03-21T18:01:43.523Z,5.31
2023-03-21T18:04:11.290Z,5.21
2023-03-21T18:06:39.750Z,5.06
2023-03-21T18:09:11.926Z,5.03
2023-03-21T18:11:41.538Z,4.96
2023-03-21T18:14:17.537Z,4.87
2023-03-21T18:16:48.279Z,4.78
2023-03-21T18:19:16.879Z,4.60
2023-03-21T18:21:46.028Z,4.54
2023-03-21T18:24:15.073Z,4.49
2023-03-21T18:26:44.504Z,4.48
2023-03-21T18:32:08.255Z,4.26
2023-03-21T18:34:39.090Z,4.21
2023-03-21T18:37:09.064Z,4.09
2023-03-21T18:39:38.252Z,4.13
2023-03-21T18:42:07.529Z,4.07
2023-03-21T18:44:45.510Z,4.11
2023-03-21T18:47:14.890Z,4.18
2023-03-21T18:50:13.126Z,4.13
2023-03-21T18:52:32.726Z,3.77
2023-03-21T18:55:00.858Z,3.68
2023-03-21T18:57:37.018Z,3.71
2023-03-21T19:00:14.196Z,3.72
2023-03-21T19:02:47.727Z,3.83
2023-03-21T19:05:17.912Z,3.91
2023-03-21T19:07:47.174Z,3.98
2023-03-21T19:10:18.939Z,3.95
2023-03-21T19:12:52.226Z,3.87
2023-03-21T19:15:22.191Z,3.76
2023-03-21T19:20:45.324Z,3.72
2023-03-21T19:23:13.952Z,3.76
2023-03-21T19:25:43.297Z,3.80
2023-03-21T19:28:11.923Z,3.76
2023-03-21T19:30:40.182Z,3.83
2023-03-21T19:33:09.437Z,3.84
2023-03-21T19:35:40.926Z,3.86
2023-03-21T19:38:12.330Z,3.87
2023-03-21T19:40:42.008Z,3.86
2023-03-21T19:43:31.121Z,3.95
2023-03-21T19:46:01.153Z,3.96
2023-03-21T19:48:29.954Z,3.93
2023-03-21T19:51:26.267Z,3.97
2023-03-21T19:53:46.609Z,3.93
2023-03-21T19:56:22.433Z,3.90
2023-03-21T19:58:52.586Z,3.90
2023-03-21T20:01:21.429Z,3.93
2023-03-21T20:03:50.131Z,3.99
2023-03-21T20:06:18.785Z,4.00
2023-03-21T20:09:27.330Z,3.92
2023-03-21T20:11:36.216Z,3.94
2023-03-21T20:14:05.533Z,3.95
2023-03-21T20:16:35.672Z,4.02
2023-03-21T20:19:06.482Z,4.01
2023-03-21T20:21:44.415Z,4.00
2023-03-21T20:24:17.137Z,4.08
2023-03-21T20:26:46.237Z,4.15
2023-03-21T20:32:03.472Z,4.00
2023-03-21T20:34:33.795Z,4.06
2023-03-21T20:37:04.056Z,4.14
2023-03-21T20:39:34.278Z,4.21
2023-03-21T20:42:02.562Z,4.30
2023-03-21T20:47:19.602Z,4.39
2023-03-21T20:49:49.506Z,4.47
2023-03-21T20:55:10.027Z,4.49
2023-03-21T20:57:39.124Z,4.36
2023-03-21T21:00:18.785Z,4.32
2023-03-21T21:02:50.793Z,4.18
2023-03-21T21:05:32.892Z,4.15
2023-03-21T21:08:03.861Z,4.07
2023-03-21T21:10:33.674Z,4.04
2023-03-21T21:13:02.022Z,3.89
2023-03-21T21:15:30.227Z,3.71
2023-03-21T21:18:08.054Z,3.65
2023-03-21T21:20:38.776Z,3.60
2023-03-21T21:23:07.030Z,3.55
2023-03-21T21:25:35.565Z,3.48
2023-03-21T21:28:09.275Z,3.44
2023-03-21T21:30:41.900Z,3.37
2023-03-21T21:33:10.236Z,3.22
2023-03-21T21:35:38.890Z,3.08
2023-03-21T21:38:08.642Z,3.05
2023-03-21T21:40:38.532Z,2.89
2023-03-21T21:43:06.883Z,2.90
2023-03-21T21:45:37.675Z,2.82
2023-03-21T21:48:07.109Z,2.71
2023-03-21T21:50:36.932Z,2.68
2023-03-21T21:53:06.530Z,2.62
2023-03-21T21:55:34.984Z,2.55
2023-03-21T21:58:04.621Z,2.48
2023-03-21T22:00:33.264Z,2.46
2023-03-21T22:03:02.365Z,2.41
2023-03-21T22:05:31.071Z,2.36
2023-03-21T22:07:58.783Z,2.29
2023-03-21T22:10:27.915Z,2.26
2023-03-21T22:12:55.988Z,2.22
2023-03-21T22:15:24.653Z,2.11
2023-03-21T22:17:52.937Z,2.06
2023-03-21T22:20:22.216Z,2.04
2023-03-21T22:22:50.400Z,2.02
2023-03-21T22:25:18.967Z,1.92
2023-03-21T22:27:47.698Z,1.86
2023-03-21T22:30:18.166Z,1.82
2023-03-21T22:32:56.428Z,1.76
2023-03-21T22:35:27.818Z,1.74
2023-03-21T22:37:55.707Z,1.68
2023-03-21T22:40:24.752Z,1.62
2023-03-21T22:42:52.600Z,1.55
2023-03-21T22:45:21.240Z,1.48
2023-03-21T22:47:49.281Z,1.49
2023-03-21T22:50:18.130Z,1.46
2023-03-21T22:52:46.497Z,1.43
2023-03-21T22:55:14.669Z,1.29
2023-03-21T22:57:42.365Z,1.31
2023-03-21T23:00:13.866Z,1.27
2023-03-21T23:02:42.824Z,1.24
2023-03-21T23:05:11.204Z,1.20
2023-03-21T23:07:40.309Z,1.16
2023-03-21T23:10:09.122Z,1.12
2023-03-21T23:12:37.848Z,1.08
2023-03-21T23:15:07.902Z,1.05
2023-03-21T23:17:35.973Z,0.95
2023-03-21T23:20:08.804Z,0.97
2023-03-21T23:22:37.201Z,0.93
2023-03-21T23:25:06.828Z,0.90
2023-03-21T23:27:35.637Z,0.84
2023-03-21T23:30:07.302Z,0.81
2023-03-21T23:32:35.796Z,0.75
2023-03-21T23:35:04.485Z,0.69
2023-03-21T23:37:32.292Z,0.66
2023-03-21T23:40:00.582Z,0.64
2023-03-21T23:42:29.439Z,0.59
2023-03-21T23:44:57.467Z,0.60
2023-03-21T23:47:25.698Z,0.58
2023-03-21T23:49:53.613Z,0.56
2023-03-21T23:52:21.849Z,0.55
2023-03-21T23:54:50.074Z,0.50
2023-03-21T23:57:18.350Z,0.40
2023-03-21T23:59:47.212Z,0.40
